Time;durP1;ratioP1;P1;durP2;ratioP2;P2;SDS_P1;SDS_P2;PMS_P1;PMS_P2;Temp;Humidity;BMP_temperature;BMP_pressure;BME280_temperature;BME280_humidity;BME280_pressure;Samples;Min_cycle;Max_cycle;Signal;HPM_P1;HPM_P2
2021/08/12 00:03:04;;;;;;;;;;;;;;;21.10;64.55;100524.47;10249853;28;19989;-62
2021/08/12 00:08:06;;;;;;;;;;;;;;;21.05;64.66;100524.22;10250032;28;20005;-61
2021/08/12 00:13:07;;;;;;;;;;;;;;;21.02;64.84;100528.13;10249675;28;19962;-62
2021/08/12 00:18:08;;;;;;;;;;;;;;;21.01;65.00;100526.44;10245969;28;20021;-61
2021/08/12 00:23:10;;;;;;;;;;;;;;;21.00;64.76;100515.78;10247497;28;20382;-63
2021/08/12 00:28:12;;;;;;;;;;;;;;;20.97;64.72;100517.03;10252164;28;20047;-65
2021/08/12 00:33:13;;;;;;;;;;;;;;;20.94;64.84;100519.25;10253872;28;19965;-61
2021/08/12 00:38:15;;;;;;;;;;;;;;;20.90;64.86;100518.78;10248650;28;19966;-61
2021/08/12 00:43:16;;;;;;;;;;;;;;;20.90;64.68;100520.66;10250616;28;20022;-61
2021/08/12 00:48:17;;;;;;;;;;;;;;;20.87;64.64;100531.81;10251376;28;19962;-61
2021/08/12 00:53:19;;;;;;;;;;;;;;;20.82;64.90;100535.06;10252752;28;20408;-61
2021/08/12 00:58:20;;;;;;;;;;;;;;;20.73;65.37;100528.94;10250988;28;19927;-60
2021/08/12 01:03:22;;;;;;;;;;;;;;;20.65;65.69;100526.25;10255018;28;19989;-65
2021/08/12 01:08:35;;;;;;;;;;;;;;;20.61;65.87;100536.59;10254709;28;19926;-60
2021/08/12 01:13:43;;;;;;;;;;;;;;;20.32;66.75;100531.94;10248103;28;19931;-62
2021/08/12 01:19:00;;;;;;;;;;;;;;;20.10;67.91;100541.72;10237993;28;19934;-60
2021/08/12 01:24:04;;;;;;;;;;;;;;;20.35;66.74;100536.97;10236082;28;19961;-61
2021/08/12 01:29:07;;;;;;;;;;;;;;;20.45;66.33;100532.16;10260916;28;19976;-61
2021/08/12 01:34:21;;;;;;;;;;;;;;;20.47;66.23;100537.38;10266490;28;19930;-61
2021/08/12 01:39:23;;;;;;;;;;;;;;;20.42;66.49;100540.66;10253500;28;20729;-64
2021/08/12 01:44:26;;;;;;;;;;;;;;;20.34;67.02;100545.25;10259826;28;20013;-62
2021/08/12 01:49:27;;;;;;;;;;;;;;;20.38;66.96;100539.31;10257205;28;19954;-61
2021/08/12 01:54:29;;;;;;;;;;;;;;;20.36;67.05;100527.84;10256801;28;20557;-61
2021/08/12 01:59:31;;;;;;;;;;;;;;;20.31;67.19;100531.09;10261142;28;19969;-61
2021/08/12 02:04:33;;;;;;;;;;;;;;;20.30;67.39;100534.00;10267757;28;19934;-62
2021/08/12 02:09:34;;;;;;;;;;;;;;;20.09;68.23;100526.53;10262602;28;19958;-61
2021/08/12 02:14:37;;;;;;;;;;;;;;;20.12;68.07;100521.59;10261779;28;19938;-61
2021/08/12 02:19:38;;;;;;;;;;;;;;;20.18;67.80;100524.63;10263074;28;19926;-61
2021/08/12 02:24:44;;;;;;;;;;;;;;;20.16;67.48;100526.66;10242678;28;20030;-62
2021/08/12 02:29:47;;;;;;;;;;;;;;;20.16;67.29;100521.25;10262804;28;20402;-60
2021/08/12 02:34:50;;;;;;;;;;;;;;;20.11;67.36;100509.09;10267260;28;20014;-61
2021/08/12 02:39:52;;;;;;;;;;;;;;;20.07;67.26;100502.41;10255319;28;20021;-60
2021/08/12 02:44:54;;;;;;;;;;;;;;;20.09;67.11;100500.34;10253216;28;20020;-62
2021/08/12 02:49:56;;;;;;;;;;;;;;;20.06;67.10;100500.72;10262051;28;19926;-61
2021/08/12 02:54:58;;;;;;;;;;;;;;;20.03;67.10;100501.06;10246881;28;20163;-60
2021/08/12 03:00:00;;;;;;;;;;;;;;;20.00;67.12;100501.44;10252413;28;20016;-60
2021/08/12 03:05:02;;;;;;;;;;;;;;;20.00;66.99;100496.03;10259064;28;20191;-61
2021/08/12 03:10:04;;;;;;;;;;;;;;;19.97;66.92;100496.38;10253740;28;20032;-61
2021/08/12 03:15:06;;;;;;;;;;;;;;;19.96;66.68;100500.09;10238545;28;19989;-60
2021/08/12 03:20:08;;;;;;;;;;;;;;;19.95;66.53;100493.00;10255278;28;20281;-62
2021/08/12 03:25:09;;;;;;;;;;;;;;;19.93;66.50;100503.16;10253426;28;20005;-60
2021/08/12 03:30:11;;;;;;;;;;;;;;;19.87;66.37;100493.06;10247248;28;20450;-60
2021/08/12 03:35:12;;;;;;;;;;;;;;;19.83;66.44;100489.03;10256041;28;19988;-61
2021/08/12 03:40:13;;;;;;;;;;;;;;;19.84;66.40;100498.84;10251022;28;20024;-61
2021/08/12 03:45:15;;;;;;;;;;;;;;;19.82;66.32;100498.19;10242040;28;20025;-61
2021/08/12 03:50:16;;;;;;;;;;;;;;;19.81;66.35;100501.88;10237586;28;19989;-60
2021/08/12 03:55:20;;;;;;;;;;;;;;;19.78;66.48;100501.22;10246246;28;20036;-61
2021/08/12 04:00:22;;;;;;;;;;;;;;;19.75;66.45;100504.22;10223100;28;19930;-60
2021/08/12 04:05:23;;;;;;;;;;;;;;;19.70;66.49;100500.41;10246267;28;19970;-61
2021/08/12 04:10:24;;;;;;;;;;;;;;;19.72;66.31;100510.00;10238419;28;19926;-60
2021/08/12 04:15:26;;;;;;;;;;;;;;;19.73;66.36;100506.28;10255506;28;19981;-61
2021/08/12 04:20:27;;;;;;;;;;;;;;;19.72;66.14;100510.00;10255383;28;19958;-61
2021/08/12 04:25:28;;;;;;;;;;;;;;;19.73;66.27;100522.50;10256960;28;19930;-61
2021/08/12 04:30:30;;;;;;;;;;;;;;;19.74;66.36;100513.38;10237462;28;19973;-61
2021/08/12 04:35:31;;;;;;;;;;;;;;;19.76;66.10;100514.03;10254778;28;19933;-61
2021/08/12 04:40:32;;;;;;;;;;;;;;;19.77;66.19;100514.84;10241956;28;20411;-61
2021/08/12 04:45:35;;;;;;;;;;;;;;;19.80;66.08;100519.09;10253465;28;19996;-61
2021/08/12 04:50:38;;;;;;;;;;;;;;;19.82;65.97;100519.78;10255473;28;19930;-60
2021/08/12 04:55:39;;;;;;;;;;;;;;;19.85;65.91;100531.06;10251964;28;19964;-62
2021/08/12 05:00:40;;;;;;;;;;;;;;;19.89;65.62;100537.81;10234649;28;19938;-62
2021/08/12 05:05:42;;;;;;;;;;;;;;;19.97;65.30;100550.41;10244467;28;19930;-61
2021/08/12 05:10:44;;;;;;;;;;;;;;;20.06;65.25;100549.34;10246743;28;20310;-62
2021/08/12 05:15:45;;;;;;;;;;;;;;;20.19;64.98;100542.50;10244911;28;19988;-64
2021/08/12 05:20:47;;;;;;;;;;;;;;;20.26;64.76;100540.75;10244399;28;20005;-62
2021/08/12 05:25:48;;;;;;;;;;;;;;;20.30;64.33;100539.38;10240359;28;20013;-62
2021/08/12 05:30:49;;;;;;;;;;;;;;;20.39;64.07;100546.41;10247200;28;19927;-62
2021/08/12 05:35:51;;;;;;;;;;;;;;;20.49;64.07;100560.53;10250592;28;20315;-62
2021/08/12 05:40:52;;;;;;;;;;;;;;;20.62;63.50;100548.25;10248062;28;19954;-62
2021/08/12 05:45:54;;;;;;;;;;;;;;;20.75;63.18;100542.28;10245200;28;19981;-62
2021/08/12 05:50:55;;;;;;;;;;;;;;;20.80;62.95;100540.69;10234650;28;20054;-58
2021/08/12 05:55:57;;;;;;;;;;;;;;;20.80;63.17;100540.69;10242005;28;19930;-58
2021/08/12 06:00:58;;;;;;;;;;;;;;;20.83;63.37;100543.00;10249898;28;20068;-57
2021/08/12 06:09:56;;;;;;;;;;;;;;;20.97;62.93;100540.50;10383348;28;19933;-60
2021/08/12 06:14:58;;;;;;;;;;;;;;;21.02;62.84;100541.66;10401140;28;19999;-61
2021/08/12 06:23:05;;;;;;;7.88;4.47;;;;;;;21.09;62.40;100549.88;10401521;27;20336;-62
2021/08/12 06:28:08;;;;;;;7.15;4.20;;;;;;;21.12;62.61;100546.81;10383949;28;20053;-58
2021/08/12 06:33:09;;;;;;;8.52;4.07;;;;;;;21.27;62.07;100556.78;10401499;28;20055;-58
2021/08/12 06:38:11;;;;;;;6.45;4.78;;;;;;;21.19;62.07;100547.72;10396794;28;20079;-60
2021/08/12 06:43:13;;;;;;;5.30;3.92;;;;;;;21.18;62.48;100547.91;10406884;28;20129;-60
2021/08/12 06:48:15;;;;;;;5.83;4.17;;;;;;;21.24;62.37;100557.16;10412966;28;20454;-59
2021/08/12 06:53:16;;;;;;;5.93;4.47;;;;;;;21.23;62.86;100547.34;10406380;28;20554;-62
2021/08/12 06:58:18;;;;;;;7.00;4.45;;;;;;;21.32;62.78;100565.19;10375920;28;20066;-60
2021/08/12 07:03:19;;;;;;;5.75;4.30;;;;;;;21.39;62.70;100557.97;10377701;28;20092;-61
2021/08/12 07:08:20;;;;;;;4.95;4.03;;;;;;;21.44;62.68;100555.56;10379030;28;20658;-58
2021/08/12 07:13:22;;;;;;;6.38;4.15;;;;;;;21.59;62.49;100549.31;10368959;28;20144;-59
2021/08/12 07:18:23;;;;;;;5.85;3.72;;;;;;;21.82;61.70;100539.19;10397240;28;20081;-58
2021/08/12 07:23:27;;;;;;;8.27;4.57;;;;;;;22.13;61.11;100540.78;10409720;28;20617;-60
2021/08/12 07:28:31;;;;;;;5.75;3.75;;;;;;;22.18;60.32;100538.34;10378094;28;20614;-60
2021/08/12 07:33:32;;;;;;;7.55;3.67;;;;;;;22.37;60.45;100547.75;10343808;28;20045;-58
2021/08/12 07:38:34;;;;;;;7.10;4.40;;;;;;;22.49;60.16;100534.50;10346600;28;20506;-59
2021/08/12 07:43:36;;;;;;;4.95;3.85;;;;;;;22.54;60.02;100540.16;10347037;28;20538;-60
2021/08/12 07:48:37;;;;;;;4.90;4.38;;;;;;;22.77;59.19;100548.09;10354251;28;20073;-60
2021/08/12 07:53:39;;;;;;;7.10;4.50;;;;;;;22.95;58.54;100550.31;10332805;28;20132;-57
2021/08/12 07:58:40;;;;;;;6.90;4.68;;;;;;;23.14;58.48;100555.28;10343129;28;20050;-59
2021/08/12 08:03:42;;;;;;;8.48;4.75;;;;;;;23.43;57.38;100551.47;10342944;28;20133;-58
2021/08/12 08:08:44;;;;;;;6.07;4.55;;;;;;;23.44;57.66;100553.16;10347442;28;20587;-59
2021/08/12 08:13:45;;;;;;;6.43;4.68;;;;;;;23.45;57.23;100549.41;10352089;28;20050;-58
2021/08/12 08:18:47;;;;;;;7.07;5.28;;;;;;;23.49;57.31;100545.22;10338584;28;21714;-59
2021/08/12 08:23:49;;;;;;;4.90;4.28;;;;;;;24.13;56.46;100554.06;10327558;28;20466;-59
2021/08/12 08:28:50;;;;;;;6.45;4.38;;;;;;;24.57;55.33;100551.81;10350456;28;20065;-58
2021/08/12 08:33:51;;;;;;;6.60;4.10;;;;;;;24.68;53.99;100554.78;10351070;28;20061;-60
2021/08/12 08:38:53;;;;;;;5.70;4.22;;;;;;;24.92;53.36;100548.91;10373384;28;20133;-59
2021/08/12 08:43:55;;;;;;;7.75;4.72;;;;;;;25.13;52.15;100545.97;10356121;28;20075;-60
2021/08/12 08:48:59;;;;;;;4.68;4.10;;;;;;;25.13;53.00;100531.47;10363335;28;20058;-60
2021/08/12 08:54:02;;;;;;;6.47;3.90;;;;;;;25.70;52.60;100551.69;10348870;28;20101;-59
2021/08/12 08:59:05;;;;;;;6.45;4.38;;;;;;;26.23;50.93;100544.28;10337042;28;20117;-58
2021/08/12 09:04:06;;;;;;;8.07;4.40;;;;;;;26.78;49.38;100547.25;10360644;28;20346;-58
2021/08/12 09:09:09;;;;;;;7.00;3.97;;;;;;;27.36;48.04;100547.94;10385382;28;20068;-60
2021/08/12 09:14:36;;;;;;;6.65;4.15;;;;;;;27.91;46.26;100538.00;10379141;28;20057;-59
2021/08/12 09:19:38;;;;;;;6.07;4.28;;;;;;;28.00;46.00;100531.19;10321230;28;20058;-60
2021/08/12 09:24:50;;;;;;;4.95;4.32;;;;;;;27.94;46.41;100537.53;10341183;28;20157;-59
2021/08/12 09:30:13;;;;;;;7.15;5.15;;;;;;;27.86;45.56;100531.34;10320530;28;20136;-60
2021/08/12 09:35:24;;;;;;;6.55;4.80;;;;;;;27.72;46.32;100527.13;10352978;28;20336;-59
2021/08/12 09:40:26;;;;;;;7.28;5.20;;;;;;;27.56;46.33;100539.50;10381726;28;20045;-59
2021/08/12 09:45:30;;;;;;;8.53;4.53;;;;;;;27.75;46.65;100534.03;10341929;28;20085;-60
2021/08/12 09:50:32;;;;;;;6.05;4.55;;;;;;;28.15;46.24;100537.06;10374020;28;20050;-59
2021/08/12 09:55:39;;;;;;;9.27;5.20;;;;;;;28.38;45.15;100529.97;10347826;28;20512;-61
2021/08/12 10:00:46;;;;;;;7.00;4.88;;;;;;;28.71;43.65;100532.19;10373949;28;20187;-60
2021/08/12 10:05:49;;;;;;;10.85;4.90;;;;;;;29.21;42.32;100533.63;10369022;28;20047;-59
2021/08/12 10:10:50;;;;;;;5.55;4.03;;;;;;;29.20;41.59;100529.22;10380172;28;20060;-61
2021/08/12 10:15:52;;;;;;;6.47;4.00;;;;;;;28.71;43.62;100525.91;10374697;28;20051;-60
2021/08/12 10:20:54;;;;;;;5.90;4.78;;;;;;;28.54;43.23;100512.88;10381301;28;20055;-61
2021/08/12 10:25:58;;;;;;;7.35;4.10;;;;;;;28.65;43.95;100529.59;10380950;28;20128;-61
2021/08/12 10:31:04;;;;;;;5.90;4.43;;;;;;;28.80;43.92;100518.97;10384618;28;20183;-61
2021/08/12 10:36:06;;;;;;;6.70;4.22;;;;;;;29.53;41.70;100519.50;10371394;28;20069;-59
2021/08/12 10:41:08;;;;;;;8.77;4.83;;;;;;;29.38;42.03;100519.16;10377232;28;20493;-60
2021/08/12 10:46:10;;;;;;;5.45;3.83;;;;;;;28.60;43.71;100513.00;10376466;28;20134;-60
2021/08/12 10:51:12;;;;;;;6.53;4.10;;;;;;;28.29;44.33;100509.50;10379537;28;20102;-62
2021/08/12 10:56:18;;;;;;;7.50;5.07;;;;;;;28.08;45.02;100517.19;10374269;28;20159;-59
2021/08/12 11:01:31;;;;;;;7.93;4.80;;;;;;;27.66;45.95;100511.63;10329435;28;20061;-60
2021/08/12 11:06:41;;;;;;;6.50;4.03;;;;;;;27.68;46.00;100513.09;10352792;28;20126;-60
2021/08/12 11:11:43;;;;;;;7.18;4.18;;;;;;;27.74;46.49;100511.31;10352593;28;20049;-59
2021/08/12 11:16:45;;;;;;;7.38;3.92;;;;;;;27.68;46.53;100507.63;10401680;28;20441;-59
2021/08/12 11:21:48;;;;;;;6.68;4.53;;;;;;;27.72;46.66;100505.25;10394515;28;20060;-60
2021/08/12 11:26:50;;;;;;;4.60;3.90;;;;;;;27.90;46.87;100509.81;10377925;28;20527;-59
2021/08/12 11:31:57;;;;;;;4.53;3.72;;;;;;;28.14;44.61;100488.88;10398611;28;20057;-59
2021/08/12 11:37:12;;;;;;;4.90;4.07;;;;;;;28.56;43.98;100494.28;10386556;28;20053;-60
2021/08/12 11:42:34;;;;;;;9.40;4.43;;;;;;;28.40;44.35;100497.72;10349478;28;21535;-60
2021/08/12 11:47:38;;;;;;;5.28;4.03;;;;;;;28.47;44.77;100486.69;10327637;28;20056;-60
2021/08/12 11:52:47;;;;;;;4.90;3.75;;;;;;;28.64;44.23;100493.13;10359157;28;20099;-59
2021/08/12 11:57:56;;;;;;;7.82;4.15;;;;;;;28.72;43.69;100486.50;10336625;28;20179;-61
2021/08/12 12:03:02;;;;;;;3.90;3.60;;;;;;;29.06;43.11;100487.50;10355302;28;20078;-61
2021/08/12 12:08:08;;;;;;;4.45;3.78;;;;;;;29.03;43.08;100479.75;10332389;28;20070;-60
2021/08/12 12:13:21;;;;;;;7.13;4.03;;;;;;;28.83;43.64;100479.34;10320418;28;20714;-60
2021/08/12 12:18:34;;;;;;;6.38;4.30;;;;;;;29.41;42.81;100491.28;10336656;28;20446;-61
2021/08/12 12:23:39;;;;;;;5.00;3.80;;;;;;;30.19;40.62;100497.19;10341280;28;20064;-60
2021/08/12 12:28:40;;;;;;;5.45;3.92;;;;;;;30.41;39.77;100488.22;10356426;28;20150;-62
2021/08/12 12:33:42;;;;;;;4.30;3.27;;;;;;;30.58;37.25;100478.06;10352607;28;20132;-61
2021/08/12 12:38:43;;;;;;;;;;;;;;;30.93;36.99;100487.09;10355329;28;20187;-61
2021/08/12 12:43:45;;;;;;;4.03;3.63;;;;;;;30.62;36.85;100483.88;10362136;28;20007;-62
2021/08/12 12:48:46;;;;;;;5.25;3.53;;;;;;;30.15;38.26;100483.09;10356883;28;20068;-61
2021/08/12 12:53:48;;;;;;;4.27;3.60;;;;;;;29.73;39.57;100490.81;10355757;28;20133;-66
2021/08/12 12:58:50;;;;;;;5.27;4.07;;;;;;;29.33;39.23;100488.94;10383177;28;20381;-59
2021/08/12 13:03:55;;;;;;;;;;;;;;;29.00;40.08;100493.13;10378643;28;20125;-62
2021/08/12 13:08:57;;;;;;;7.53;4.10;;;;;;;28.85;40.93;100482.66;10378535;28;19928;-62
2021/08/12 13:14:09;;;;;;;4.33;3.63;;;;;;;29.07;40.16;100491.09;10331428;28;20078;-65
2021/08/12 13:19:25;;;;;;;4.82;3.63;;;;;;;29.71;38.42;100490.22;10359054;28;20132;-61
2021/08/12 13:24:40;;;;;;;4.50;3.35;;;;;;;30.19;38.02;100486.19;10350471;28;20575;-61
2021/08/12 13:29:42;;;;;;;4.03;3.70;;;;;;;30.18;37.92;100479.03;10366228;28;20041;-61
2021/08/12 13:34:44;;;;;;;4.63;3.70;;;;;;;30.36;38.41;100483.44;10325323;28;20054;-62
2021/08/12 13:39:46;;;;;;;4.88;3.80;;;;;;;30.59;37.95;100485.19;10340484;28;20603;-60
2021/08/12 13:44:48;;;;;;;4.53;3.60;;;;;;;30.55;38.13;100483.22;10360587;28;20063;-62
2021/08/12 13:49:49;;;;;;;6.15;4.25;;;;;;;29.82;38.83;100469.34;10351539;28;20184;-61
2021/08/12 13:54:50;;;;;;;5.17;4.10;;;;;;;29.65;39.12;100474.75;10354485;28;20165;-61
2021/08/12 13:59:52;;;;;;;4.73;3.40;;;;;;;29.96;39.54;100470.69;10305624;28;20157;-61
2021/08/12 14:04:53;;;;;;;4.63;3.92;;;;;;;30.12;39.10;100463.56;10352150;28;20320;-60
2021/08/12 14:09:55;;;;;;;5.00;4.03;;;;;;;30.10;39.02;100454.72;10334200;28;20080;-61
2021/08/12 14:14:56;;;;;;;6.03;3.87;;;;;;;29.89;39.47;100454.41;10371170;28;20119;-60
2021/08/12 14:19:57;;;;;;;6.43;4.10;;;;;;;30.03;39.29;100460.38;10382288;28;20366;-62
2021/08/12 14:24:59;;;;;;;5.10;4.20;;;;;;;30.10;39.42;100451.97;10384796;28;20073;-61
2021/08/12 14:30:00;;;;;;;4.17;3.63;;;;;;;29.92;39.71;100437.44;10379103;28;20307;-62
2021/08/12 14:35:02;;;;;;;3.93;3.37;;;;;;;29.72;39.17;100428.81;10385067;28;20068;-61
2021/08/12 14:40:06;;;;;;;7.63;4.60;;;;;;;29.58;39.95;100418.13;10379433;28;20049;-60
2021/08/12 14:45:08;;;;;;;7.20;4.30;;;;;;;29.31;40.65;100411.59;10383789;28;20160;-60
2021/08/12 14:50:09;;;;;;;;;;;;;;;29.30;40.80;100418.97;10355045;28;20691;-61
2021/08/12 14:55:11;;;;;;;5.65;4.30;;;;;;;29.17;40.47;100414.59;10303471;28;20097;-62
2021/08/12 15:00:13;;;;;;;4.43;4.03;;;;;;;29.01;40.55;100410.69;10352122;28;20063;-61
2021/08/12 15:05:14;;;;;;;8.20;4.65;;;;;;;28.97;41.19;100408.69;10355787;28;20572;-62
2021/08/12 15:10:16;;;;;;;4.70;4.20;;;;;;;28.88;40.96;100406.28;10368102;28;20148;-61
2021/08/12 15:15:17;;;;;;;5.00;4.53;;;;;;;28.78;40.22;100400.63;10352569;28;20131;-61
2021/08/12 15:20:19;;;;;;;7.83;4.03;;;;;;;28.77;40.54;100392.66;10383952;28;22953;-60
2021/08/12 15:25:20;;;;;;;4.85;4.45;;;;;;;28.66;40.46;100391.56;10363770;28;20115;-61
2021/08/12 15:30:22;;;;;;;7.25;4.63;;;;;;;28.60;40.82;100378.84;10381431;28;20126;-63
2021/08/12 15:35:23;;;;;;;5.80;4.47;;;;;;;28.56;40.33;100387.50;10383348;28;20512;-61
2021/08/12 15:40:25;;;;;;;4.70;4.20;;;;;;;28.46;40.35;100384.53;10397838;28;20960;-62
2021/08/12 15:45:26;;;;;;;5.82;4.20;;;;;;;28.42;40.73;100369.69;10365588;28;21009;-60
2021/08/12 15:50:28;;;;;;;5.78;4.55;;;;;;;28.34;41.83;100365.38;10351515;28;20061;-61
2021/08/12 15:55:30;;;;;;;6.25;4.32;;;;;;;28.27;41.62;100361.97;10309646;28;20147;-62
2021/08/12 16:00:35;;;;;;;4.15;3.85;;;;;;;28.20;40.70;100362.06;10348086;28;20104;-59
2021/08/12 16:05:37;;;;;;;7.95;4.63;;;;;;;28.04;41.57;100368.22;10399680;28;20139;-60
2021/08/12 16:10:40;;;;;;;5.28;3.92;;;;;;;27.94;41.75;100357.00;10373418;28;20479;-62
2021/08/12 16:15:41;;;;;;;6.95;4.20;;;;;;;27.97;41.67;100367.50;10385252;28;20069;-60
2021/08/12 16:20:43;;;;;;;5.72;3.90;;;;;;;27.94;41.32;100351.53;10376672;28;20131;-61
2021/08/12 16:25:44;;;;;;;4.43;3.97;;;;;;;27.99;41.84;100359.91;10384811;28;20132;-61
2021/08/12 16:30:45;;;;;;;7.47;4.22;;;;;;;27.98;42.05;100360.97;10395951;28;20132;-61
2021/08/12 16:35:47;;;;;;;5.50;3.90;;;;;;;27.87;41.51;100357.94;10396379;28;20128;-62
2021/08/12 16:40:48;;;;;;;5.05;4.07;;;;;;;27.83;41.58;100353.19;10379399;28;20045;-62
2021/08/12 16:45:50;;;;;;;4.43;4.03;;;;;;;27.73;42.23;100348.31;10343570;28;20078;-64
2021/08/12 16:50:51;;;;;;;4.97;4.47;;;;;;;27.65;42.90;100349.50;10318205;28;20104;-61
2021/08/12 16:55:53;;;;;;;5.72;4.65;;;;;;;27.61;42.57;100355.63;10366541;28;20045;-62
2021/08/12 17:00:54;;;;;;;6.30;4.82;;;;;;;27.46;42.39;100337.78;10385103;28;20483;-60
2021/08/12 17:05:56;;;;;;;4.82;4.43;;;;;;;27.46;42.75;100350.63;10357339;28;20752;-61
2021/08/12 17:10:57;;;;;;;4.85;3.80;;;;;;;27.37;42.42;100350.13;10372591;28;20076;-62
2021/08/12 17:16:00;;;;;;;5.38;4.32;;;;;;;27.33;42.80;100341.53;10353234;28;20495;-61
2021/08/12 17:21:03;;;;;;;5.20;4.70;;;;;;;27.29;43.03;100340.34;10343026;28;20287;-62
2021/08/12 17:26:04;;;;;;;4.93;4.15;;;;;;;27.25;43.48;100343.72;10349882;28;20120;-61
2021/08/12 17:31:07;;;;;;;4.93;4.43;;;;;;;27.24;43.45;100339.34;10347993;28;20065;-60
2021/08/12 17:36:10;;;;;;;6.07;4.28;;;;;;;27.21;44.00;100331.63;10349479;28;20123;-61
2021/08/12 17:41:13;;;;;;;6.95;5.07;;;;;;;27.20;44.88;100340.88;10376894;28;20569;-60
2021/08/12 17:46:14;;;;;;;5.30;4.78;;;;;;;27.12;45.57;100340.13;10341929;28;20057;-58
2021/08/12 17:51:16;;;;;;;57.42;52.00;;;;;;;27.03;46.31;100335.22;10343562;28;20144;-59
2021/08/12 17:56:18;;;;;;;11.50;10.32;;;;;;;26.91;46.48;100337.91;10340906;28;20137;-61
2021/08/12 18:01:20;;;;;;;6.97;5.82;;;;;;;26.89;46.49;100351.78;10353718;28;20073;-59
2021/08/12 18:06:22;;;;;;;6.88;5.57;;;;;;;26.81;47.09;100361.13;10366673;28;20183;-59
2021/08/12 18:11:23;;;;;;;7.28;6.05;;;;;;;26.72;47.40;100369.81;10343012;28;20143;-58
2021/08/12 18:16:26;;;;;;;6.90;5.72;;;;;;;26.59;47.95;100368.06;10329319;28;20137;-60
2021/08/12 18:21:28;;;;;;;26.95;24.35;;;;;;;26.51;48.66;100371.06;10337067;28;20050;-59
2021/08/12 18:26:29;;;;;;;8.50;7.68;;;;;;;26.39;49.08;100376.44;10338201;28;20127;-59
2021/08/12 18:31:30;;;;;;;6.85;6.10;;;;;;;26.25;49.41;100384.75;10341397;28;20652;-61
2021/08/12 18:36:32;;;;;;;8.88;5.75;;;;;;;26.18;50.05;100394.06;10367942;28;20184;-58
2021/08/12 18:41:33;;;;;;;6.90;5.85;;;;;;;26.06;50.30;100405.72;10351873;28;20132;-60
2021/08/12 18:46:35;;;;;;;8.73;5.82;;;;;;;25.98;50.57;100400.47;10362259;28;20176;-60
2021/08/12 18:51:37;;;;;;;7.60;6.40;;;;;;;25.86;50.70;100402.25;10380913;28;20081;-60
2021/08/12 18:56:39;;;;;;;9.05;6.65;;;;;;;25.76;51.14;100414.50;10372875;28;20524;-60
2021/08/12 19:01:40;;;;;;;7.75;6.53;;;;;;;25.71;51.04;100422.47;10377204;28;20045;-61
2021/08/12 19:06:42;;;;;;;36.83;33.45;;;;;;;25.63;51.76;100441.84;10373898;28;20129;-61
2021/08/12 19:11:43;;;;;;;18.63;16.67;;;;;;;25.54;51.49;100448.59;10373314;28;20069;-60
2021/08/12 19:16:45;;;;;;;11.85;10.65;;;;;;;25.50;52.20;100453.63;10388349;28;20128;-60
2021/08/12 19:21:46;;;;;;;13.05;9.20;;;;;;;25.39;52.04;100455.16;10373329;28;20080;-59
2021/08/12 19:26:47;;;;;;;11.95;8.63;;;;;;;25.33;52.33;100447.84;10344337;28;20058;-61
2021/08/12 19:31:49;;;;;;;7.63;6.78;;;;;;;25.26;52.44;100452.44;10369823;28;20176;-59
2021/08/12 19:36:51;;;;;;;6.82;6.13;;;;;;;25.24;52.10;100457.28;10352755;28;20139;-64
2021/08/12 19:41:52;;;;;;;9.25;6.45;;;;;;;25.17;52.42;100461.91;10348931;28;20136;-60
2021/08/12 19:46:54;;;;;;;6.47;5.78;;;;;;;25.13;52.23;100463.41;10345573;28;20487;-59
2021/08/12 19:51:56;;;;;;;8.65;5.85;;;;;;;25.09;51.97;100452.09;10348969;28;20045;-60
2021/08/12 19:56:57;;;;;;;7.70;6.53;;;;;;;25.09;52.33;100462.16;10344520;28;20641;-59
2021/08/12 20:01:58;;;;;;;6.55;5.95;;;;;;;25.06;52.24;100456.09;10342574;28;20128;-60
2021/08/12 20:07:01;;;;;;;5.72;5.18;;;;;;;25.04;52.49;100457.34;10365738;28;20054;-59
2021/08/12 20:12:03;;;;;;;7.70;5.77;;;;;;;25.00;52.19;100451.50;10365109;28;20521;-60
2021/08/12 20:17:05;;;;;;;8.73;5.93;;;;;;;24.94;52.00;100454.25;10335576;28;20344;-61
2021/08/12 20:22:06;;;;;;;6.72;6.10;;;;;;;24.90;52.59;100447.56;10351800;28;20072;-59
2021/08/12 20:27:08;;;;;;;7.90;6.68;;;;;;;24.84;52.72;100447.34;10342042;28;20164;-59
2021/08/12 20:32:10;;;;;;;7.57;6.03;;;;;;;24.78;52.72;100456.34;10341152;28;20070;-59
2021/08/12 20:37:11;;;;;;;6.93;6.28;;;;;;;24.76;53.41;100446.75;10345824;28;20078;-63
2021/08/12 20:42:14;;;;;;;6.22;5.63;;;;;;;24.65;53.58;100443.63;10329386;28;20105;-60
2021/08/12 20:47:15;;;;;;;6.90;5.72;;;;;;;24.67;53.62;100448.84;10358249;28;20212;-60
2021/08/12 20:52:17;;;;;;;7.88;5.90;;;;;;;24.58;53.99;100440.06;10376317;28;20537;-60
2021/08/12 20:57:18;;;;;;;8.18;5.78;;;;;;;24.58;54.58;100444.66;10382224;28;20068;-60
2021/08/12 21:02:20;;;;;;;6.65;5.95;;;;;;;24.47;54.79;100438.81;10373188;28;20065;-60
2021/08/12 21:07:22;;;;;;;7.03;6.13;;;;;;;24.42;55.60;100429.59;10376347;28;20049;-63
2021/08/12 21:12:25;;;;;;;7.90;5.70;;;;;;;24.30;55.71;100423.94;10377710;28;20130;-60
2021/08/12 21:17:26;;;;;;;8.20;6.45;;;;;;;24.24;56.21;100417.47;10375620;28;20107;-60
2021/08/12 21:22:28;;;;;;;6.63;5.93;;;;;;;24.17;56.26;100425.63;10381423;28;20073;-62
2021/08/12 21:27:30;;;;;;;10.25;6.32;;;;;;;24.11;57.04;100431.06;10376934;28;20049;-58
2021/08/12 21:32:31;;;;;;;7.80;7.00;;;;;;;23.95;57.10;100411.38;10375647;28;20072;-61
2021/08/12 21:37:33;;;;;;;6.72;6.05;;;;;;;23.96;57.47;100429.38;10371525;28;20754;-61
2021/08/12 21:42:34;;;;;;;8.15;6.88;;;;;;;23.91;57.95;100437.31;10373515;28;20124;-60
2021/08/12 21:47:36;;;;;;;7.90;6.15;;;;;;;23.85;58.18;100435.41;10374933;28;20053;-60
2021/08/12 21:52:38;;;;;;;6.90;5.88;;;;;;;23.82;58.73;100441.25;10376557;28;20578;-58
2021/08/12 21:57:39;;;;;;;8.20;5.78;;;;;;;23.76;58.79;100448.31;10376267;28;20467;-59
2021/08/12 22:02:42;;;;;;;7.75;5.68;;;;;;;23.70;59.06;100451.03;10375081;28;20525;-61
2021/08/12 22:07:44;;;;;;;;;;;;;;;23.65;59.54;100455.22;10374693;28;20041;-61
2021/08/12 22:12:46;;;;;;;6.70;5.97;;;;;;;23.48;59.74;100456.63;10373946;28;20426;-60
2021/08/12 22:17:48;;;;;;;6.90;5.97;;;;;;;23.43;60.49;100464.53;10374709;28;20076;-61
2021/08/12 22:22:57;;;;;;;6.70;5.88;;;;;;;23.27;61.23;100474.72;10374384;28;20370;-59
2021/08/12 22:28:01;;;;;;;8.90;6.18;;;;;;;23.23;62.45;100472.59;10374237;28;20123;-61
2021/08/12 22:33:02;;;;;;;;;;;;;;;23.20;62.71;100473.84;10375398;28;22047;-60
2021/08/12 22:38:04;;;;;;;7.20;5.65;;;;;;;23.18;62.49;100477.78;10373173;28;20026;-60
2021/08/12 22:43:06;;;;;;;6.18;5.60;;;;;;;23.08;62.99;100489.81;10374074;28;20396;-61
2021/08/12 22:48:08;;;;;;;6.60;5.85;;;;;;;23.00;63.25;100490.00;10372857;28;20099;-59
2021/08/12 22:53:09;;;;;;;8.20;6.25;;;;;;;22.98;63.56;100483.91;10377423;28;20045;-60
2021/08/12 22:58:10;;;;;;;9.88;6.32;;;;;;;22.95;63.09;100479.75;10388093;28;20052;-61
2021/08/12 23:03:12;;;;;;;8.23;6.03;;;;;;;22.91;63.12;100475.75;10376142;28;20072;-60
2021/08/12 23:08:14;;;;;;;6.13;5.45;;;;;;;22.90;63.22;100470.53;10380263;28;20414;-59
2021/08/12 23:13:15;;;;;;;7.18;5.70;;;;;;;22.91;63.17;100485.78;10380547;28;20223;-60
2021/08/12 23:18:22;;;;;;;7.60;5.85;;;;;;;22.88;63.37;100488.84;10383481;28;20053;-60
2021/08/12 23:23:24;;;;;;;8.23;5.35;;;;;;;22.84;63.47;100493.03;10381230;28;20049;-60
2021/08/12 23:28:26;;;;;;;6.30;5.35;;;;;;;22.78;63.80;100510.94;10382319;28;20364;-59
2021/08/12 23:33:28;;;;;;;7.20;5.23;;;;;;;22.73;63.64;100516.13;10382263;28;20123;-59
2021/08/12 23:38:29;;;;;;;7.03;5.72;;;;;;;22.70;64.08;100524.63;10384051;28;20591;-59
2021/08/12 23:43:31;;;;;;;6.75;6.05;;;;;;;22.60;64.55;100525.00;10382045;28;20127;-60
2021/08/12 23:48:32;;;;;;;10.48;6.45;;;;;;;22.57;64.64;100534.34;10383555;28;20955;-59
2021/08/12 23:53:33;;;;;;;7.50;6.20;;;;;;;22.52;65.24;100534.09;10379914;28;20084;-61